createdAt,value
2023-05-10T00:00:18.547Z,7.67
2023-05-10T00:03:07.136Z,7.64
2023-05-10T00:05:35.475Z,7.66
2023-05-10T00:08:03.599Z,7.65
2023-05-10T00:10:32.025Z,7.62
2023-05-10T00:13:00.183Z,7.58
2023-05-10T00:15:28.354Z,7.57
2023-05-10T00:17:56.394Z,7.54
2023-05-10T00:20:24.401Z,7.51
2023-05-10T00:22:52.520Z,7.46
2023-05-10T00:25:22.585Z,7.45
2023-05-10T00:27:50.955Z,7.45
2023-05-10T00:30:20.202Z,7.43
2023-05-10T00:32:49.337Z,7.37
2023-05-10T00:35:17.728Z,7.36
2023-05-10T00:37:46.255Z,7.38
2023-05-10T00:40:15.005Z,7.40
2023-05-10T00:42:44.400Z,7.42
2023-05-10T00:45:12.751Z,7.44
2023-05-10T00:47:40.961Z,7.45
2023-05-10T00:50:10.347Z,7.45
2023-05-10T00:52:38.481Z,7.46
2023-05-10T00:55:07.812Z,7.43
2023-05-10T00:57:36.127Z,7.39
2023-05-10T01:00:04.884Z,7.39
2023-05-10T01:02:35.319Z,7.38
2023-05-10T01:05:07.328Z,7.34
2023-05-10T01:07:35.434Z,7.31
2023-05-10T01:10:03.662Z,7.26
2023-05-10T01:12:31.806Z,7.21
2023-05-10T01:15:02.123Z,7.16
2023-05-10T01:17:31.043Z,7.11
2023-05-10T01:19:59.144Z,7.14
2023-05-10T01:22:33.194Z,7.19
2023-05-10T01:25:38.236Z,7.22
2023-05-10T01:28:18.706Z,7.24
2023-05-10T01:31:18.047Z,7.21
2023-05-10T01:34:05.822Z,7.17
2023-05-10T01:36:44.073Z,7.13
2023-05-10T01:39:55.644Z,7.14
2023-05-10T01:42:30.583Z,7.16
2023-05-10T01:45:28.611Z,7.22
2023-05-10T01:48:15.194Z,7.25
2023-05-10T01:50:46.195Z,7.26
2023-05-10T01:53:19.158Z,7.25
2023-05-10T01:55:53.706Z,7.19
2023-05-10T01:58:26.477Z,7.16
2023-05-10T02:00:55.928Z,7.18
2023-05-10T02:03:26.508Z,7.19
2023-05-10T02:05:56.321Z,7.19
2023-05-10T02:08:25.745Z,7.17
2023-05-10T02:10:57.280Z,7.10
2023-05-10T02:13:28.586Z,7.05
2023-05-10T02:15:58.735Z,7.00
2023-05-10T02:18:28.865Z,6.96
2023-05-10T02:20:58.861Z,6.92
2023-05-10T02:23:27.808Z,6.91
2023-05-10T02:25:58.046Z,6.90
2023-05-10T02:28:28.042Z,6.88
2023-05-10T02:30:57.884Z,6.84
2023-05-10T02:33:27.916Z,6.79
2023-05-10T02:35:57.042Z,6.73
2023-05-10T02:38:26.911Z,6.67
2023-05-10T02:40:56.666Z,6.62
2023-05-10T02:43:25.914Z,6.66
2023-05-10T02:45:54.154Z,6.74
2023-05-10T02:48:22.368Z,6.81
2023-05-10T02:50:53.465Z,6.82
2023-05-10T02:53:29.740Z,6.84
2023-05-10T02:56:01.931Z,6.85
2023-05-10T02:58:30.089Z,6.84
2023-05-10T03:00:58.211Z,6.85
2023-05-10T03:03:26.330Z,6.85
2023-05-10T03:05:57.764Z,6.82
2023-05-10T03:08:26.487Z,6.83
2023-05-10T03:11:14.932Z,6.87
2023-05-10T03:14:17.826Z,6.85
2023-05-10T03:16:58.675Z,6.83
2023-05-10T03:19:48.596Z,6.86
2023-05-10T03:22:33.466Z,6.85
2023-05-10T03:25:07.242Z,6.87
2023-05-10T03:27:37.686Z,6.92
2023-05-10T03:30:09.006Z,6.99
2023-05-10T03:32:38.204Z,7.08
2023-05-10T03:35:13.498Z,7.16
2023-05-10T03:37:41.458Z,7.22
2023-05-10T03:40:11.109Z,7.20
2023-05-10T03:42:40.294Z,7.17
2023-05-10T03:45:09.228Z,7.19
2023-05-10T03:47:37.297Z,7.23
2023-05-10T03:50:06.584Z,7.30
2023-05-10T03:52:34.679Z,7.39
2023-05-10T03:55:04.762Z,7.45
2023-05-10T03:57:33.332Z,7.49
2023-05-10T04:00:01.773Z,7.53
2023-05-10T04:02:31.213Z,7.59
2023-05-10T04:04:59.391Z,7.68
2023-05-10T04:07:27.418Z,7.82
2023-05-10T04:09:55.449Z,7.98
2023-05-10T04:12:24.067Z,8.16
2023-05-10T04:14:52.273Z,8.34
2023-05-10T04:17:20.356Z,8.50
2023-05-10T04:19:48.414Z,8.65
2023-05-10T04:22:17.246Z,8.79
2023-05-10T04:24:45.158Z,8.95
2023-05-10T04:27:13.177Z,9.12
2023-05-10T04:29:41.292Z,9.28
2023-05-10T04:32:11.213Z,9.45
2023-05-10T04:34:39.357Z,9.60
2023-05-10T04:37:08.675Z,9.73
2023-05-10T04:39:36.906Z,9.82
2023-05-10T04:42:06.876Z,9.92
2023-05-10T04:44:34.928Z,10.04
2023-05-10T04:47:04.065Z,10.19
2023-05-10T04:49:32.067Z,10.36
2023-05-10T04:52:00.182Z,10.51
2023-05-10T04:54:28.311Z,10.66
2023-05-10T04:56:56.327Z,10.81
2023-05-10T04:59:24.348Z,10.93
2023-05-10T05:01:52.413Z,11.04
2023-05-10T05:04:20.591Z,11.14
2023-05-10T05:06:48.710Z,11.24
2023-05-10T05:09:17.533Z,11.37
2023-05-10T05:11:45.554Z,11.51
2023-05-10T05:14:13.569Z,11.66
2023-05-10T05:16:41.652Z,11.79
2023-05-10T05:19:09.811Z,11.88
2023-05-10T05:21:37.930Z,11.97
2023-05-10T05:24:06.792Z,12.07
2023-05-10T05:26:35.070Z,12.16
2023-05-10T05:29:03.095Z,12.24
2023-05-10T05:31:31.670Z,12.31
2023-05-10T05:33:59.642Z,12.41
2023-05-10T05:36:27.651Z,12.49
2023-05-10T05:38:56.070Z,12.57
2023-05-10T05:41:25.697Z,12.60
2023-05-10T05:43:54.015Z,12.67
2023-05-10T05:46:22.084Z,12.74
2023-05-10T05:48:50.159Z,12.81
2023-05-10T05:51:18.374Z,12.95
2023-05-10T05:53:46.394Z,13.08
2023-05-10T05:56:14.617Z,13.20
2023-05-10T05:58:42.644Z,13.30
2023-05-10T06:01:10.657Z,13.35
2023-05-10T06:03:38.782Z,13.44
2023-05-10T06:06:06.902Z,13.50
2023-05-10T06:08:35.228Z,13.57
2023-05-10T06:11:05.166Z,13.61
2023-05-10T06:13:34.541Z,13.69
2023-05-10T06:16:04.195Z,13.79
2023-05-10T06:18:32.614Z,13.85
2023-05-10T06:21:01.036Z,13.93
2023-05-10T06:23:29.002Z,14.02
2023-05-10T06:25:57.074Z,14.13
2023-05-10T06:28:25.200Z,14.14
2023-05-10T06:30:53.435Z,14.16
2023-05-10T06:33:21.554Z,14.26
2023-05-10T06:35:49.652Z,14.30
2023-05-10T06:38:17.874Z,14.22
2023-05-10T06:40:45.910Z,14.14
2023-05-10T06:43:14.015Z,14.10
2023-05-10T06:45:42.232Z,14.22
2023-05-10T06:48:10.422Z,14.34
2023-05-10T06:50:38.876Z,14.43
2023-05-10T06:53:06.997Z,14.44
2023-05-10T06:55:35.015Z,14.43
2023-05-10T06:58:03.332Z,14.37
2023-05-10T07:00:31.484Z,14.36
2023-05-10T07:02:59.866Z,14.43
2023-05-10T07:05:29.295Z,14.53
2023-05-10T07:07:57.593Z,14.57
2023-05-10T07:10:25.847Z,14.58
2023-05-10T07:12:54.214Z,14.60
2023-05-10T07:15:22.594Z,14.66
2023-05-10T07:17:50.749Z,14.71
2023-05-10T07:20:19.121Z,14.77
2023-05-10T07:22:47.153Z,14.92
2023-05-10T07:25:15.366Z,14.97
2023-05-10T07:27:43.882Z,15.11
2023-05-10T07:30:12.812Z,15.28
2023-05-10T07:32:43.019Z,15.39
2023-05-10T07:35:11.352Z,15.47
2023-05-10T07:37:39.372Z,15.55
2023-05-10T07:40:08.408Z,15.70
2023-05-10T07:42:36.414Z,15.83
2023-05-10T07:45:05.146Z,15.92
2023-05-10T07:47:33.195Z,15.90
2023-05-10T07:50:01.580Z,15.90
2023-05-10T07:52:29.701Z,16.01
2023-05-10T07:54:58.116Z,16.11
2023-05-10T07:57:26.240Z,16.16
2023-05-10T07:59:54.354Z,16.28
2023-05-10T08:02:22.417Z,16.44
2023-05-10T08:04:50.597Z,16.58
2023-05-10T08:07:18.713Z,16.67
2023-05-10T08:09:47.539Z,16.72
2023-05-10T08:12:15.757Z,16.72
2023-05-10T08:14:44.077Z,16.70
2023-05-10T08:17:12.297Z,16.79
2023-05-10T08:19:40.720Z,16.82
2023-05-10T08:22:08.655Z,16.83
2023-05-10T08:24:39.480Z,16.88
2023-05-10T08:27:07.499Z,16.99
2023-05-10T08:29:49.059Z,16.98
2023-05-10T08:32:18.677Z,17.11
2023-05-10T08:34:46.702Z,17.23
2023-05-10T08:37:14.783Z,17.27
2023-05-10T08:39:42.941Z,17.12
2023-05-10T08:42:11.157Z,17.03
2023-05-10T08:44:39.716Z,16.95
2023-05-10T08:47:08.498Z,17.08
2023-05-10T08:49:38.830Z,17.25
2023-05-10T08:52:08.462Z,17.34
2023-05-10T08:54:37.681Z,17.43
2023-05-10T08:57:06.200Z,17.49
2023-05-10T08:59:34.429Z,17.55
2023-05-10T09:02:03.204Z,17.50
2023-05-10T09:04:32.460Z,17.53
2023-05-10T09:07:00.695Z,17.61
2023-05-10T09:09:29.412Z,17.68
2023-05-10T09:11:58.026Z,17.73
2023-05-10T09:14:27.056Z,17.79
2023-05-10T09:16:56.484Z,17.84
2023-05-10T09:19:24.926Z,17.88
2023-05-10T09:21:52.917Z,17.88
2023-05-10T09:24:26.063Z,17.79
2023-05-10T09:26:54.075Z,17.76
2023-05-10T09:29:23.501Z,17.92
2023-05-10T09:31:55.445Z,18.05
2023-05-10T09:34:33.998Z,18.21
2023-05-10T09:37:05.465Z,18.31
2023-05-10T09:39:33.653Z,18.45
2023-05-10T09:42:07.206Z,18.49
2023-05-10T09:44:36.106Z,18.51
2023-05-10T09:47:04.823Z,18.45
2023-05-10T09:49:34.340Z,18.44
2023-05-10T09:52:07.612Z,18.53
2023-05-10T09:54:36.322Z,18.68
2023-05-10T09:57:04.552Z,18.85
2023-05-10T09:59:35.981Z,18.91
2023-05-10T10:02:04.526Z,18.81
2023-05-10T10:04:33.109Z,18.77
2023-05-10T10:07:03.850Z,18.91
2023-05-10T10:09:33.175Z,18.99
2023-05-10T10:12:03.063Z,19.08
2023-05-10T10:14:31.544Z,19.18
2023-05-10T10:19:36.597Z,19.37
2023-05-10T10:22:05.721Z,19.33
2023-05-10T10:24:34.127Z,19.28
2023-05-10T10:27:16.797Z,19.37
2023-05-10T10:30:10.202Z,19.45
2023-05-10T10:33:13.556Z,19.45
2023-05-10T10:35:55.217Z,19.31
2023-05-10T10:38:24.037Z,19.20
2023-05-10T10:41:11.095Z,19.00
2023-05-10T10:43:39.149Z,18.94
2023-05-10T10:46:18.773Z,19.02
2023-05-10T10:49:09.201Z,19.07
2023-05-10T10:51:40.984Z,19.13
2023-05-10T10:54:13.083Z,19.20
2023-05-10T10:56:41.088Z,19.23
2023-05-10T10:59:09.512Z,19.20
2023-05-10T11:01:37.624Z,19.26
2023-05-10T11:04:05.789Z,19.29
2023-05-10T11:06:36.819Z,19.26
2023-05-10T11:09:13.493Z,19.39
2023-05-10T11:11:56.314Z,19.58
2023-05-10T11:14:25.422Z,19.68
2023-05-10T11:16:53.653Z,19.58
2023-05-10T11:19:21.666Z,19.49
2023-05-10T11:22:12.354Z,19.44
2023-05-10T11:24:40.787Z,19.48
2023-05-10T11:27:09.299Z,19.40
2023-05-10T11:29:37.330Z,19.50
2023-05-10T11:32:09.259Z,19.54
2023-05-10T11:34:37.388Z,19.46
2023-05-10T11:37:05.393Z,19.39
2023-05-10T11:39:34.607Z,19.32
2023-05-10T11:42:03.045Z,19.29
2023-05-10T11:44:32.657Z,19.31
2023-05-10T11:47:02.396Z,19.20
2023-05-10T11:49:31.192Z,19.13
2023-05-10T11:52:09.405Z,19.14
2023-05-10T11:54:37.489Z,19.20
2023-05-10T11:57:05.509Z,19.24
2023-05-10T11:59:33.633Z,19.31
2023-05-10T12:02:02.061Z,19.39
2023-05-10T12:04:31.342Z,19.46
2023-05-10T12:06:59.796Z,19.42
2023-05-10T12:09:42.475Z,19.42
2023-05-10T12:12:17.408Z,19.45
2023-05-10T12:14:50.245Z,19.51
2023-05-10T12:17:18.264Z,19.40
2023-05-10T12:19:46.294Z,19.42
2023-05-10T12:22:14.403Z,19.49
2023-05-10T12:24:42.421Z,19.44
2023-05-10T12:27:10.436Z,19.42
2023-05-10T12:29:45.652Z,19.53
2023-05-10T12:32:13.843Z,19.56
2023-05-10T12:34:41.938Z,19.61
2023-05-10T12:37:10.095Z,19.54
2023-05-10T12:39:45.869Z,19.50
2023-05-10T12:42:14.016Z,19.40
2023-05-10T12:44:42.036Z,19.26
2023-05-10T12:47:10.065Z,19.17
2023-05-10T12:49:38.177Z,19.18
2023-05-10T12:52:06.312Z,19.25
2023-05-10T12:54:34.322Z,19.30
2023-05-10T12:57:02.334Z,19.26
2023-05-10T12:59:30.358Z,19.21
2023-05-10T13:01:58.990Z,19.19
2023-05-10T13:04:27.065Z,19.21
2023-05-10T13:06:59.910Z,19.17
2023-05-10T13:09:30.507Z,19.21
2023-05-10T13:11:58.904Z,19.26
2023-05-10T13:14:27.845Z,19.33
2023-05-10T13:16:55.999Z,19.37
2023-05-10T13:19:24.045Z,19.48
2023-05-10T13:21:52.063Z,19.60
2023-05-10T13:24:20.382Z,19.66
2023-05-10T13:26:48.301Z,19.66
2023-05-10T13:29:18.530Z,19.61
2023-05-10T13:31:46.882Z,19.48
2023-05-10T13:34:14.928Z,19.35
2023-05-10T13:36:43.189Z,19.26
2023-05-10T13:39:11.204Z,19.10
2023-05-10T13:41:39.540Z,18.92
2023-05-10T13:44:07.451Z,18.83
2023-05-10T13:46:35.934Z,18.77
2023-05-10T13:49:04.002Z,18.60
2023-05-10T13:51:32.834Z,18.57
2023-05-10T13:54:00.935Z,18.55
2023-05-10T13:56:29.056Z,18.51
2023-05-10T13:59:00.590Z,18.47
2023-05-10T14:01:28.890Z,18.37
2023-05-10T14:03:57.157Z,18.41
2023-05-10T14:06:25.247Z,18.34
2023-05-10T14:08:53.568Z,18.35
2023-05-10T14:11:23.282Z,18.39
2023-05-10T14:13:52.516Z,18.40
2023-05-10T14:16:21.413Z,18.43
2023-05-10T14:18:49.724Z,18.54
2023-05-10T14:21:18.079Z,18.55
2023-05-10T14:23:45.999Z,18.63
2023-05-10T14:26:14.017Z,18.62
2023-05-10T14:28:42.169Z,18.64
2023-05-10T14:31:10.257Z,18.63
2023-05-10T14:33:38.280Z,18.61
2023-05-10T14:36:07.327Z,18.55
2023-05-10T14:38:35.525Z,18.43
2023-05-10T14:41:03.655Z,18.48
2023-05-10T14:43:32.218Z,18.41
2023-05-10T14:46:00.408Z,18.43
2023-05-10T14:48:28.602Z,18.38
2023-05-10T14:50:56.922Z,18.41
2023-05-10T14:53:24.842Z,18.31
2023-05-10T14:55:53.474Z,18.25
2023-05-10T14:58:21.483Z,18.22
2023-05-10T15:00:49.916Z,18.09
2023-05-10T15:03:18.553Z,17.92
2023-05-10T15:05:47.658Z,17.94
2023-05-10T15:08:15.662Z,17.93
2023-05-10T15:10:44.109Z,17.80
2023-05-10T15:13:11.941Z,17.76
2023-05-10T15:15:40.037Z,17.65
2023-05-10T15:18:08.091Z,17.57
2023-05-10T15:20:36.264Z,17.50
2023-05-10T15:23:04.384Z,17.44
2023-05-10T15:25:35.417Z,17.42
2023-05-10T15:28:04.313Z,17.35
2023-05-10T15:30:32.478Z,17.29
2023-05-10T15:33:00.629Z,17.26
2023-05-10T15:35:29.001Z,17.17
2023-05-10T15:37:57.031Z,17.11
2023-05-10T15:40:25.042Z,17.12
2023-05-10T15:42:53.170Z,17.11
2023-05-10T15:45:21.477Z,17.09
2023-05-10T15:47:49.517Z,17.08
2023-05-10T15:50:17.823Z,17.11
2023-05-10T15:52:45.942Z,17.24
2023-05-10T15:55:14.433Z,17.22
2023-05-10T15:57:43.951Z,17.23
2023-05-10T16:00:13.423Z,17.20
2023-05-10T16:02:42.273Z,17.16
2023-05-10T16:05:11.166Z,17.13
2023-05-10T16:07:40.409Z,17.14
2023-05-10T16:10:10.621Z,17.03
2023-05-10T16:12:39.431Z,16.89
2023-05-10T16:15:08.941Z,16.82
2023-05-10T16:17:37.698Z,16.69
2023-05-10T16:20:07.106Z,16.56
2023-05-10T16:22:36.033Z,16.44
2023-05-10T16:25:04.750Z,16.31
2023-05-10T16:27:33.741Z,16.17
2023-05-10T16:30:02.214Z,16.04
2023-05-10T16:32:30.430Z,15.94
2023-05-10T16:34:59.536Z,15.82
2023-05-10T16:37:28.361Z,15.67
2023-05-10T16:39:56.394Z,15.52
2023-05-10T16:42:25.303Z,15.34
2023-05-10T16:44:54.762Z,15.17
2023-05-10T16:47:23.426Z,14.99
2023-05-10T16:49:51.667Z,14.85
2023-05-10T16:52:19.697Z,14.67
2023-05-10T16:54:47.706Z,14.52
2023-05-10T16:57:15.924Z,14.39
2023-05-10T16:59:44.047Z,14.24
2023-05-10T17:02:12.685Z,14.07
2023-05-10T17:04:42.898Z,13.92
2023-05-10T17:07:11.218Z,13.78
2023-05-10T17:09:40.137Z,13.65
2023-05-10T17:12:08.274Z,13.51
2023-05-10T17:14:38.242Z,13.41
2023-05-10T17:17:07.055Z,13.27
2023-05-10T17:19:35.125Z,13.17
2023-05-10T17:22:03.149Z,13.08
2023-05-10T17:24:31.368Z,12.98
2023-05-10T17:27:00.819Z,12.88
2023-05-10T17:29:29.337Z,12.80
2023-05-10T17:31:57.490Z,12.73
2023-05-10T17:34:25.653Z,12.64
2023-05-10T17:36:53.871Z,12.57
2023-05-10T17:39:21.909Z,12.49
2023-05-10T17:41:50.013Z,12.41
2023-05-10T17:44:18.034Z,12.35
2023-05-10T17:46:46.055Z,12.28
2023-05-10T17:49:14.190Z,12.23
2023-05-10T17:51:44.207Z,12.19
2023-05-10T17:54:12.315Z,12.16
2023-05-10T17:56:41.087Z,12.13
2023-05-10T17:59:09.164Z,12.10
2023-05-10T18:01:37.330Z,12.05
2023-05-10T18:04:06.291Z,12.01
2023-05-10T18:06:38.358Z,11.92
2023-05-10T18:09:07.411Z,11.86
2023-05-10T18:11:36.876Z,11.80
2023-05-10T18:14:04.918Z,11.72
2023-05-10T18:16:33.036Z,11.67
2023-05-10T18:19:01.282Z,11.62
2023-05-10T18:21:29.461Z,11.56
2023-05-10T18:23:57.775Z,11.50
2023-05-10T18:26:26.403Z,11.45
2023-05-10T18:28:54.334Z,11.39
2023-05-10T18:31:22.469Z,11.31
2023-05-10T18:33:50.677Z,11.24
2023-05-10T18:36:18.682Z,11.22
2023-05-10T18:38:46.803Z,11.21
2023-05-10T18:41:15.246Z,11.22
2023-05-10T18:43:43.443Z,11.24
2023-05-10T18:46:11.504Z,11.26
2023-05-10T18:48:40.815Z,11.24
2023-05-10T18:51:09.008Z,11.23
2023-05-10T18:53:37.334Z,11.20
2023-05-10T18:56:05.849Z,11.16
2023-05-10T18:58:35.910Z,11.12
2023-05-10T19:01:04.204Z,11.05
2023-05-10T19:03:32.219Z,10.97
2023-05-10T19:06:00.541Z,10.91
2023-05-10T19:08:28.658Z,10.84
2023-05-10T19:10:56.677Z,10.81
2023-05-10T19:13:24.998Z,10.80
2023-05-10T19:16:11.238Z,10.79
2023-05-10T19:18:40.210Z,10.79
2023-05-10T19:21:10.735Z,10.78
2023-05-10T19:23:40.396Z,10.74
2023-05-10T19:26:10.913Z,10.69
2023-05-10T19:28:39.112Z,10.67
2023-05-10T19:31:07.576Z,10.64
2023-05-10T19:33:36.255Z,10.62
2023-05-10T19:36:04.610Z,10.60
2023-05-10T19:38:33.890Z,10.57
2023-05-10T19:41:02.037Z,10.53
2023-05-10T19:43:34.239Z,10.50
2023-05-10T19:46:03.575Z,10.49
2023-05-10T19:48:32.300Z,10.50
2023-05-10T19:51:01.618Z,10.52
2023-05-10T19:53:30.367Z,10.48
2023-05-10T19:56:06.449Z,10.43
2023-05-10T19:58:34.511Z,10.33
2023-05-10T20:01:02.802Z,10.19
2023-05-10T20:03:31.076Z,10.11
2023-05-10T20:05:59.280Z,10.07
2023-05-10T20:08:27.807Z,10.04
2023-05-10T20:10:59.233Z,10.03
2023-05-10T20:13:27.357Z,10.02
2023-05-10T20:15:57.074Z,9.99
2023-05-10T20:18:26.328Z,9.97
2023-05-10T20:20:56.170Z,9.95
2023-05-10T20:23:24.434Z,9.93
2023-05-10T20:25:52.957Z,9.92
2023-05-10T20:28:23.199Z,9.91
2023-05-10T20:30:54.027Z,9.86
2023-05-10T20:33:23.035Z,9.82
2023-05-10T20:35:52.561Z,9.76
2023-05-10T20:38:21.599Z,9.69
2023-05-10T20:40:49.602Z,9.62
2023-05-10T20:43:18.952Z,9.52
2023-05-10T20:45:47.768Z,9.46
2023-05-10T20:48:16.094Z,9.40
2023-05-10T20:50:44.090Z,9.38
2023-05-10T20:53:12.111Z,9.36
2023-05-10T20:55:40.231Z,9.36
2023-05-10T20:58:08.249Z,9.34
2023-05-10T21:00:36.271Z,9.34
2023-05-10T21:03:04.796Z,9.31
2023-05-10T21:05:32.829Z,9.24
2023-05-10T21:08:00.932Z,9.17
2023-05-10T21:10:28.944Z,9.12
2023-05-10T21:12:57.070Z,9.09
2023-05-10T21:15:25.792Z,9.06
2023-05-10T21:17:54.569Z,9.05
2023-05-10T21:20:23.643Z,9.06
2023-05-10T21:22:51.772Z,9.07
2023-05-10T21:25:19.781Z,9.08
2023-05-10T21:27:47.994Z,9.11
2023-05-10T21:30:16.421Z,9.10
2023-05-10T21:32:44.652Z,9.10
2023-05-10T21:35:12.701Z,9.07
2023-05-10T21:37:40.783Z,9.03
2023-05-10T21:40:09.505Z,8.98
2023-05-10T21:42:37.525Z,8.94
2023-05-10T21:45:06.245Z,8.89
2023-05-10T21:47:34.200Z,8.85
2023-05-10T21:50:02.288Z,8.78
2023-05-10T21:52:30.302Z,8.68
2023-05-10T21:54:58.326Z,8.59
2023-05-10T21:57:26.548Z,8.52
2023-05-10T21:59:54.574Z,8.43
